createdAt,value
2017-10-01T00:04:11.687Z,11.32
2017-10-01T00:09:07.112Z,11.32
2017-10-01T00:14:02.759Z,11.33
2017-10-01T00:18:58.762Z,11.44
2017-10-01T00:23:55.505Z,11.22
2017-10-01T00:28:50.971Z,11.25
2017-10-01T00:33:46.807Z,11.36
2017-10-01T00:38:42.561Z,11.10
2017-10-01T00:43:39.314Z,11.29
2017-10-01T00:48:34.842Z,11.18
2017-10-01T00:53:30.732Z,11.27
2017-10-01T00:58:26.509Z,11.45
2017-10-01T01:03:23.560Z,11.32
2017-10-01T01:08:19.274Z,11.35
2017-10-01T01:13:16.077Z,11.43
2017-10-01T01:18:11.855Z,11.32
2017-10-01T01:23:07.928Z,11.33
2017-10-01T01:28:03.967Z,11.41
2017-10-01T01:33:00.584Z,11.30
2017-10-01T01:37:56.472Z,11.33
2017-10-01T01:42:52.434Z,11.27
2017-10-01T01:47:48.433Z,11.26
2017-10-01T01:52:44.244Z,11.36
2017-10-01T01:57:41.124Z,11.35
2017-10-01T02:02:36.605Z,11.35
2017-10-01T02:07:32.676Z,11.41
2017-10-01T02:12:29.735Z,11.47
2017-10-01T02:17:25.143Z,11.32
2017-10-01T02:22:20.902Z,11.51
2017-10-01T02:27:16.623Z,11.36
2017-10-01T02:32:13.746Z,11.47
2017-10-01T02:37:09.314Z,11.40
2017-10-01T02:42:05.295Z,11.40
2017-10-01T02:47:01.120Z,11.33
2017-10-01T02:51:56.821Z,11.40
2017-10-01T02:56:52.760Z,11.54
2017-10-01T03:01:48.584Z,11.55
2017-10-01T03:06:45.417Z,11.63
2017-10-01T03:11:41.140Z,11.50
2017-10-01T03:16:37.030Z,11.52
2017-10-01T03:21:32.826Z,11.69
2017-10-01T03:26:28.542Z,11.80
2017-10-01T03:31:25.822Z,11.62
2017-10-01T03:36:21.365Z,11.68
2017-10-01T03:41:18.909Z,11.77
2017-10-01T03:46:16.761Z,11.69
2017-10-01T03:51:13.266Z,11.70
2017-10-01T03:56:08.566Z,11.50
2017-10-01T04:01:04.068Z,11.59
2017-10-01T04:05:59.928Z,11.52
2017-10-01T04:10:55.770Z,11.51
2017-10-01T04:15:51.576Z,11.63
2017-10-01T04:20:47.609Z,11.78
2017-10-01T04:25:44.835Z,11.73
2017-10-01T04:30:40.286Z,11.62
2017-10-01T04:35:37.096Z,11.52
2017-10-01T04:40:32.031Z,11.55
2017-10-01T04:45:29.314Z,11.54
2017-10-01T04:50:25.623Z,11.63
2017-10-01T04:55:21.561Z,11.66
2017-10-01T05:00:17.055Z,11.63
2017-10-01T05:05:12.683Z,11.59
2017-10-01T05:10:08.673Z,11.62
2017-10-01T05:15:04.267Z,11.55
2017-10-01T05:20:00.054Z,11.60
2017-10-01T05:24:55.879Z,11.57
2017-10-01T05:29:52.394Z,11.50
2017-10-01T05:34:48.561Z,11.50
2017-10-01T05:39:44.286Z,11.51
2017-10-01T05:44:40.403Z,11.51
2017-10-01T05:49:36.174Z,11.48
2017-10-01T05:54:32.079Z,11.47
2017-10-01T05:59:28.809Z,11.41
2017-10-01T06:04:24.385Z,11.40
2017-10-01T06:09:20.211Z,11.22
2017-10-01T06:14:17.388Z,11.30
2017-10-01T06:19:12.857Z,11.36
2017-10-01T06:24:08.692Z,11.40
2017-10-01T06:29:05.064Z,11.36
2017-10-01T06:34:00.853Z,11.54
2017-10-01T06:38:56.496Z,11.51
2017-10-01T06:43:53.392Z,11.47
2017-10-01T06:48:50.530Z,11.52
2017-10-01T06:53:47.033Z,11.62
2017-10-01T06:58:43.014Z,11.65
2017-10-01T07:03:38.898Z,11.70
2017-10-01T07:08:34.864Z,11.81
2017-10-01T07:13:30.695Z,11.78
2017-10-01T07:18:27.272Z,11.63
2017-10-01T07:23:22.816Z,11.50
2017-10-01T07:28:18.581Z,11.63
2017-10-01T07:33:14.735Z,11.63
2017-10-01T07:38:10.588Z,11.80
2017-10-01T07:43:06.534Z,11.78
2017-10-01T07:48:03.476Z,11.87
2017-10-01T07:52:58.957Z,12.04
2017-10-01T07:57:54.973Z,12.29
2017-10-01T08:02:50.719Z,12.43
2017-10-01T08:07:46.978Z,12.46
2017-10-01T08:12:42.734Z,12.53
2017-10-01T08:17:39.702Z,12.58
2017-10-01T08:22:35.312Z,12.73
2017-10-01T08:27:32.261Z,12.86
2017-10-01T08:32:27.830Z,13.01
2017-10-01T08:37:23.684Z,13.19
2017-10-01T08:42:19.925Z,13.27
2017-10-01T08:47:16.135Z,13.39
2017-10-01T08:52:13.181Z,13.53
2017-10-01T08:57:09.912Z,13.52
2017-10-01T09:02:05.218Z,13.78
2017-10-01T09:07:01.140Z,13.83
2017-10-01T09:11:57.475Z,13.99
2017-10-01T09:16:53.485Z,14.15
2017-10-01T09:21:49.497Z,14.51
2017-10-01T09:26:45.884Z,14.65
2017-10-01T09:31:41.917Z,14.84
2017-10-01T09:36:39.022Z,14.99
2017-10-01T09:41:35.878Z,14.99
2017-10-01T09:46:31.538Z,15.11
2017-10-01T09:51:28.594Z,15.21
2017-10-01T09:56:25.301Z,15.25
2017-10-01T10:01:20.769Z,15.33
2017-10-01T10:06:16.549Z,15.46
2017-10-01T10:11:12.539Z,15.54
2017-10-01T10:16:08.526Z,15.75
2017-10-01T10:21:05.496Z,15.86
2017-10-01T10:26:01.306Z,15.95
2017-10-01T10:30:57.294Z,16.23
2017-10-01T10:35:53.286Z,16.36
2017-10-01T10:40:49.513Z,16.60
2017-10-01T10:45:46.400Z,16.90
2017-10-01T10:50:42.465Z,17.64
2017-10-01T10:55:39.748Z,18.19
2017-10-01T11:00:36.888Z,19.04
2017-10-01T11:05:35.374Z,19.56
2017-10-01T11:10:31.936Z,20.03
2017-10-01T11:15:29.454Z,20.16
2017-10-01T11:20:26.436Z,20.21
2017-10-01T11:25:22.631Z,20.21
2017-10-01T11:30:19.714Z,19.73
2017-10-01T11:35:15.462Z,19.82
2017-10-01T11:40:11.876Z,19.34
2017-10-01T11:45:08.003Z,19.02
2017-10-01T11:50:03.434Z,18.80
2017-10-01T11:54:59.512Z,18.50
2017-10-01T11:59:54.475Z,18.20
2017-10-01T12:04:50.395Z,18.29
2017-10-01T12:09:45.717Z,18.37
2017-10-01T12:14:42.495Z,18.71
2017-10-01T12:19:38.159Z,18.70
2017-10-01T12:24:33.774Z,18.53
2017-10-01T12:29:29.559Z,18.41
2017-10-01T12:34:25.014Z,18.23
2017-10-01T12:39:21.651Z,18.05
2017-10-01T12:44:18.461Z,18.19
2017-10-01T12:49:13.856Z,18.11
2017-10-01T12:54:10.829Z,18.10
2017-10-01T12:59:06.127Z,18.34
2017-10-01T13:04:03.114Z,18.43
2017-10-01T13:09:00.143Z,18.40
2017-10-01T13:13:55.774Z,18.60
2017-10-01T13:18:52.099Z,18.62
2017-10-01T13:23:49.042Z,18.73
2017-10-01T13:28:44.504Z,18.66
2017-10-01T13:33:42.822Z,18.63
2017-10-01T13:38:39.510Z,18.68
2017-10-01T13:43:35.121Z,18.53
2017-10-01T13:48:30.974Z,18.52
2017-10-01T13:53:27.905Z,18.52
2017-10-01T13:58:23.581Z,18.49
2017-10-01T14:03:19.802Z,18.56
2017-10-01T14:08:15.709Z,18.66
2017-10-01T14:13:11.550Z,18.81
2017-10-01T14:18:08.003Z,18.66
2017-10-01T14:23:04.028Z,18.62
2017-10-01T14:27:59.810Z,18.44
2017-10-01T14:32:56.556Z,18.44
2017-10-01T14:37:52.035Z,18.26
2017-10-01T14:42:47.979Z,18.16
2017-10-01T14:47:43.544Z,18.35
2017-10-01T14:52:40.733Z,18.37
2017-10-01T14:57:37.464Z,18.31
2017-10-01T15:02:33.165Z,18.33
2017-10-01T15:07:29.879Z,18.38
2017-10-01T15:12:25.503Z,18.19
2017-10-01T15:17:22.387Z,18.22
2017-10-01T15:22:17.982Z,18.08
2017-10-01T15:27:13.458Z,17.86
2017-10-01T15:32:10.365Z,17.76
2017-10-01T15:37:05.543Z,17.79
2017-10-01T15:42:01.534Z,17.78
2017-10-01T15:46:57.920Z,17.78
2017-10-01T15:51:53.875Z,17.68
2017-10-01T15:56:49.692Z,17.63
2017-10-01T16:01:47.400Z,17.48
2017-10-01T16:06:42.711Z,17.38
2017-10-01T16:11:38.378Z,17.30
2017-10-01T16:16:34.674Z,17.23
2017-10-01T16:21:31.364Z,17.09
2017-10-01T16:26:26.729Z,17.08
2017-10-01T16:31:23.386Z,16.96
2017-10-01T16:36:20.010Z,16.96
2017-10-01T16:41:15.565Z,16.93
2017-10-01T16:46:11.379Z,16.75
2017-10-01T16:51:08.378Z,16.65
2017-10-01T16:56:03.810Z,16.56
2017-10-01T17:00:59.530Z,16.58
2017-10-01T17:05:55.428Z,16.54
2017-10-01T17:10:51.329Z,16.38
2017-10-01T17:15:47.187Z,16.36
2017-10-01T17:20:42.882Z,16.36
2017-10-01T17:25:40.713Z,16.26
2017-10-01T17:30:35.903Z,16.21
2017-10-01T17:35:34.080Z,16.12
2017-10-01T17:40:29.447Z,16.09
2017-10-01T17:45:25.315Z,15.91
2017-10-01T17:50:23.129Z,15.94
2017-10-01T17:55:18.696Z,15.90
2017-10-01T18:00:14.456Z,15.77
2017-10-01T18:05:11.156Z,15.86
2017-10-01T18:10:07.513Z,15.68
2017-10-01T18:15:03.031Z,15.70
2017-10-01T18:19:58.772Z,15.67
2017-10-01T18:24:55.289Z,15.64
2017-10-01T18:29:51.273Z,15.73
2017-10-01T18:34:46.912Z,15.67
2017-10-01T18:39:43.775Z,15.61
2017-10-01T18:44:39.418Z,15.57
2017-10-01T18:49:35.216Z,15.55
2017-10-01T18:54:32.153Z,15.40
2017-10-01T18:59:28.594Z,15.42
2017-10-01T19:04:24.111Z,15.37
2017-10-01T19:09:20.052Z,15.42
2017-10-01T19:14:16.385Z,15.33
2017-10-01T19:19:13.149Z,15.36
2017-10-01T19:24:08.647Z,15.36
2017-10-01T19:29:04.436Z,15.35
2017-10-01T19:34:00.190Z,15.36
2017-10-01T19:38:57.025Z,15.35
2017-10-01T19:43:52.215Z,15.24
2017-10-01T19:48:49.710Z,15.22
2017-10-01T19:53:45.480Z,15.17
2017-10-01T19:58:42.809Z,15.21
2017-10-01T20:03:38.473Z,15.14
2017-10-01T20:08:34.081Z,15.17
2017-10-01T20:13:29.548Z,15.14
2017-10-01T20:18:25.598Z,15.09
2017-10-01T20:23:21.522Z,15.06
2017-10-01T20:28:18.267Z,14.96
2017-10-01T20:33:14.869Z,15.06
2017-10-01T20:38:10.274Z,14.97
2017-10-01T20:43:05.914Z,14.99
2017-10-01T20:48:01.999Z,14.88
2017-10-01T20:52:57.551Z,14.92
2017-10-01T20:57:53.814Z,14.91
2017-10-01T21:02:50.421Z,14.94
2017-10-01T21:07:47.023Z,14.92
2017-10-01T21:12:42.606Z,14.99
2017-10-01T21:17:38.417Z,15.00
2017-10-01T21:22:34.301Z,15.02
2017-10-01T21:27:31.043Z,15.14
2017-10-01T21:32:27.799Z,15.07
2017-10-01T21:37:23.295Z,15.17
2017-10-01T21:42:18.953Z,15.17
2017-10-01T21:47:16.913Z,15.14
2017-10-01T21:52:12.512Z,15.06
2017-10-01T21:57:08.376Z,15.11
2017-10-01T22:02:05.305Z,15.11
2017-10-01T22:07:00.455Z,15.06
2017-10-01T22:11:56.439Z,15.15
2017-10-01T22:16:52.521Z,15.04
2017-10-01T22:21:49.252Z,15.07
2017-10-01T22:26:45.741Z,15.18
2017-10-01T22:31:42.021Z,15.09
2017-10-01T22:36:37.969Z,15.14
2017-10-01T22:41:34.210Z,15.09
2017-10-01T22:46:30.150Z,15.10
2017-10-01T22:51:25.884Z,15.10
2017-10-01T22:56:21.705Z,15.04
2017-10-01T23:01:17.807Z,15.03
2017-10-01T23:06:13.679Z,14.99
2017-10-01T23:11:09.334Z,15.03
2017-10-01T23:16:05.082Z,14.99
2017-10-01T23:21:00.944Z,15.04
2017-10-01T23:25:57.618Z,15.14
2017-10-01T23:30:53.826Z,15.22
2017-10-01T23:35:49.462Z,15.15
2017-10-01T23:40:45.750Z,15.21
2017-10-01T23:45:41.686Z,15.24
2017-10-01T23:50:37.373Z,15.22
2017-10-01T23:55:33.572Z,15.27
